sensor_id;sensor_type;location;lat;lon;timestamp;P1;durP1;ratioP1;P2;durP2;ratioP2
41293;SDS011;27037;52.010;4.446;2023-08-12T00:01:42;10.80;;;3.72;;
41293;SDS011;27037;52.010;4.446;2023-08-12T00:04:07;14.90;;;4.03;;
41293;SDS011;27037;52.010;4.446;2023-08-12T00:06:33;12.27;;;3.97;;
41293;SDS011;27037;52.010;4.446;2023-08-12T00:08:59;10.52;;;3.92;;
41293;SDS011;27037;52.010;4.446;2023-08-12T00:11:24;10.35;;;3.53;;
41293;SDS011;27037;52.010;4.446;2023-08-12T00:13:50;9.20;;;3.95;;
41293;SDS011;27037;52.010;4.446;2023-08-12T00:16:16;8.50;;;3.60;;
41293;SDS011;27037;52.010;4.446;2023-08-12T00:18:41;13.85;;;4.05;;
41293;SDS011;27037;52.010;4.446;2023-08-12T00:21:08;14.02;;;3.72;;
41293;SDS011;27037;52.010;4.446;2023-08-12T00:23:37;10.25;;;3.83;;
41293;SDS011;27037;52.010;4.446;2023-08-12T00:26:05;10.30;;;3.85;;
41293;SDS011;27037;52.010;4.446;2023-08-12T00:28:31;14.43;;;3.95;;
41293;SDS011;27037;52.010;4.446;2023-08-12T00:30:57;10.98;;;4.05;;
41293;SDS011;27037;52.010;4.446;2023-08-12T00:33:23;11.23;;;4.13;;
41293;SDS011;27037;52.010;4.446;2023-08-12T00:35:48;18.40;;;5.00;;
41293;SDS011;27037;52.010;4.446;2023-08-12T00:38:14;10.45;;;4.68;;
41293;SDS011;27037;52.010;4.446;2023-08-12T00:40:39;10.68;;;4.45;;
41293;SDS011;27037;52.010;4.446;2023-08-12T00:43:05;10.98;;;4.70;;
41293;SDS011;27037;52.010;4.446;2023-08-12T00:45:31;11.38;;;4.70;;
41293;SDS011;27037;52.010;4.446;2023-08-12T00:47:57;18.67;;;4.88;;
41293;SDS011;27037;52.010;4.446;2023-08-12T00:50:23;13.80;;;4.90;;
41293;SDS011;27037;52.010;4.446;2023-08-12T00:52:49;14.02;;;5.00;;
41293;SDS011;27037;52.010;4.446;2023-08-12T00:55:15;11.88;;;4.80;;
41293;SDS011;27037;52.010;4.446;2023-08-12T00:57:42;16.10;;;5.28;;
41293;SDS011;27037;52.010;4.446;2023-08-12T01:00:11;12.88;;;5.00;;
41293;SDS011;27037;52.010;4.446;2023-08-12T01:02:38;13.02;;;4.75;;
41293;SDS011;27037;52.010;4.446;2023-08-12T01:05:05;13.02;;;4.75;;
41293;SDS011;27037;52.010;4.446;2023-08-12T01:07:31;14.10;;;5.47;;
41293;SDS011;27037;52.010;4.446;2023-08-12T01:09:58;13.82;;;6.18;;
41293;SDS011;27037;52.010;4.446;2023-08-12T01:12:28;12.13;;;5.70;;
41293;SDS011;27037;52.010;4.446;2023-08-12T01:15:01;13.77;;;5.80;;
41293;SDS011;27037;52.010;4.446;2023-08-12T01:17:33;15.52;;;5.68;;
41293;SDS011;27037;52.010;4.446;2023-08-12T01:20:01;10.20;;;5.32;;
41293;SDS011;27037;52.010;4.446;2023-08-12T01:22:48;12.48;;;5.82;;
41293;SDS011;27037;52.010;4.446;2023-08-12T01:25:17;10.77;;;5.57;;
41293;SDS011;27037;52.010;4.446;2023-08-12T01:27:42;13.75;;;5.53;;
41293;SDS011;27037;52.010;4.446;2023-08-12T01:30:08;17.13;;;6.18;;
41293;SDS011;27037;52.010;4.446;2023-08-12T01:32:47;12.68;;;5.68;;
41293;SDS011;27037;52.010;4.446;2023-08-12T01:35:21;13.07;;;5.75;;
41293;SDS011;27037;52.010;4.446;2023-08-12T01:37:51;12.05;;;5.97;;
41293;SDS011;27037;52.010;4.446;2023-08-12T01:40:18;11.07;;;6.00;;
41293;SDS011;27037;52.010;4.446;2023-08-12T01:42:45;12.65;;;6.25;;
41293;SDS011;27037;52.010;4.446;2023-08-12T01:45:11;13.68;;;6.82;;
41293;SDS011;27037;52.010;4.446;2023-08-12T01:47:37;15.40;;;6.55;;
41293;SDS011;27037;52.010;4.446;2023-08-12T01:50:03;12.80;;;6.47;;
41293;SDS011;27037;52.010;4.446;2023-08-12T01:52:29;15.55;;;7.28;;
41293;SDS011;27037;52.010;4.446;2023-08-12T01:54:55;14.95;;;6.45;;
41293;SDS011;27037;52.010;4.446;2023-08-12T01:57:20;13.93;;;7.15;;
41293;SDS011;27037;52.010;4.446;2023-08-12T01:59:46;13.70;;;7.30;;
41293;SDS011;27037;52.010;4.446;2023-08-12T02:02:12;16.48;;;7.30;;
41293;SDS011;27037;52.010;4.446;2023-08-12T02:04:39;17.85;;;8.02;;
41293;SDS011;27037;52.010;4.446;2023-08-12T02:07:05;15.60;;;6.88;;
41293;SDS011;27037;52.010;4.446;2023-08-12T02:09:31;15.35;;;7.22;;
41293;SDS011;27037;52.010;4.446;2023-08-12T02:11:57;13.38;;;7.10;;
41293;SDS011;27037;52.010;4.446;2023-08-12T02:14:22;17.00;;;7.50;;
41293;SDS011;27037;52.010;4.446;2023-08-12T02:16:48;20.45;;;7.25;;
41293;SDS011;27037;52.010;4.446;2023-08-12T02:19:14;17.27;;;7.28;;
41293;SDS011;27037;52.010;4.446;2023-08-12T02:21:40;14.82;;;6.88;;
41293;SDS011;27037;52.010;4.446;2023-08-12T02:24:06;15.32;;;6.78;;
41293;SDS011;27037;52.010;4.446;2023-08-12T02:26:32;14.40;;;7.25;;
41293;SDS011;27037;52.010;4.446;2023-08-12T02:28:58;18.30;;;7.05;;
41293;SDS011;27037;52.010;4.446;2023-08-12T02:31:23;13.73;;;6.45;;
41293;SDS011;27037;52.010;4.446;2023-08-12T02:33:49;14.55;;;7.53;;
41293;SDS011;27037;52.010;4.446;2023-08-12T02:36:15;14.18;;;7.78;;
41293;SDS011;27037;52.010;4.446;2023-08-12T02:38:41;16.67;;;8.00;;
41293;SDS011;27037;52.010;4.446;2023-08-12T02:41:07;14.02;;;7.53;;
41293;SDS011;27037;52.010;4.446;2023-08-12T02:43:32;14.30;;;7.60;;
41293;SDS011;27037;52.010;4.446;2023-08-12T02:45:58;13.63;;;7.65;;
41293;SDS011;27037;52.010;4.446;2023-08-12T02:48:24;15.95;;;7.97;;
41293;SDS011;27037;52.010;4.446;2023-08-12T02:50:49;17.80;;;8.55;;
41293;SDS011;27037;52.010;4.446;2023-08-12T02:53:15;16.40;;;8.63;;
41293;SDS011;27037;52.010;4.446;2023-08-12T02:55:41;22.15;;;9.85;;
41293;SDS011;27037;52.010;4.446;2023-08-12T02:58:06;19.55;;;9.27;;
41293;SDS011;27037;52.010;4.446;2023-08-12T03:00:32;20.83;;;9.48;;
41293;SDS011;27037;52.010;4.446;2023-08-12T03:02:58;17.10;;;9.52;;
41293;SDS011;27037;52.010;4.446;2023-08-12T03:05:24;17.13;;;9.75;;
41293;SDS011;27037;52.010;4.446;2023-08-12T03:07:50;20.60;;;10.20;;
41293;SDS011;27037;52.010;4.446;2023-08-12T03:10:18;18.73;;;10.48;;
41293;SDS011;27037;52.010;4.446;2023-08-12T03:12:44;19.85;;;9.73;;
41293;SDS011;27037;52.010;4.446;2023-08-12T03:15:10;21.45;;;10.43;;
41293;SDS011;27037;52.010;4.446;2023-08-12T03:17:36;24.00;;;10.45;;
41293;SDS011;27037;52.010;4.446;2023-08-12T03:20:04;21.55;;;10.50;;
41293;SDS011;27037;52.010;4.446;2023-08-12T03:22:31;19.75;;;9.77;;
41293;SDS011;27037;52.010;4.446;2023-08-12T03:24:57;18.98;;;10.10;;
41293;SDS011;27037;52.010;4.446;2023-08-12T03:27:23;19.42;;;10.05;;
41293;SDS011;27037;52.010;4.446;2023-08-12T03:29:48;17.38;;;10.27;;
41293;SDS011;27037;52.010;4.446;2023-08-12T03:32:14;20.27;;;9.27;;
41293;SDS011;27037;52.010;4.446;2023-08-12T03:34:40;20.95;;;9.07;;
41293;SDS011;27037;52.010;4.446;2023-08-12T03:37:05;20.20;;;9.63;;
41293;SDS011;27037;52.010;4.446;2023-08-12T03:39:31;21.80;;;10.88;;
41293;SDS011;27037;52.010;4.446;2023-08-12T03:41:57;15.75;;;8.82;;
41293;SDS011;27037;52.010;4.446;2023-08-12T03:44:22;17.33;;;9.35;;
41293;SDS011;27037;52.010;4.446;2023-08-12T03:46:48;19.15;;;9.38;;
41293;SDS011;27037;52.010;4.446;2023-08-12T03:49:13;18.88;;;9.25;;
41293;SDS011;27037;52.010;4.446;2023-08-12T03:51:39;18.65;;;9.88;;
41293;SDS011;27037;52.010;4.446;2023-08-12T03:54:05;18.60;;;9.32;;
41293;SDS011;27037;52.010;4.446;2023-08-12T03:56:30;20.95;;;10.25;;
41293;SDS011;27037;52.010;4.446;2023-08-12T03:58:56;19.00;;;9.93;;
41293;SDS011;27037;52.010;4.446;2023-08-12T04:01:22;16.08;;;9.95;;
41293;SDS011;27037;52.010;4.446;2023-08-12T04:03:47;21.38;;;10.50;;
41293;SDS011;27037;52.010;4.446;2023-08-12T04:06:13;18.27;;;10.38;;
41293;SDS011;27037;52.010;4.446;2023-08-12T04:08:39;17.88;;;9.93;;
41293;SDS011;27037;52.010;4.446;2023-08-12T04:11:04;16.40;;;10.70;;
41293;SDS011;27037;52.010;4.446;2023-08-12T04:13:30;19.75;;;11.60;;
41293;SDS011;27037;52.010;4.446;2023-08-12T04:15:56;19.25;;;12.07;;
41293;SDS011;27037;52.010;4.446;2023-08-12T04:18:21;20.90;;;12.23;;
41293;SDS011;27037;52.010;4.446;2023-08-12T04:20:50;22.25;;;12.10;;
41293;SDS011;27037;52.010;4.446;2023-08-12T04:23:17;24.23;;;11.90;;
41293;SDS011;27037;52.010;4.446;2023-08-12T04:25:46;21.77;;;12.63;;
41293;SDS011;27037;52.010;4.446;2023-08-12T04:28:12;22.13;;;12.40;;
41293;SDS011;27037;52.010;4.446;2023-08-12T04:30:42;26.98;;;13.38;;
41293;SDS011;27037;52.010;4.446;2023-08-12T04:33:09;25.65;;;13.70;;
41293;SDS011;27037;52.010;4.446;2023-08-12T04:35:34;26.73;;;14.10;;
41293;SDS011;27037;52.010;4.446;2023-08-12T04:38:00;26.40;;;14.50;;
41293;SDS011;27037;52.010;4.446;2023-08-12T04:40:26;22.63;;;13.45;;
41293;SDS011;27037;52.010;4.446;2023-08-12T04:42:51;25.83;;;13.45;;
41293;SDS011;27037;52.010;4.446;2023-08-12T04:45:17;26.10;;;13.95;;
41293;SDS011;27037;52.010;4.446;2023-08-12T04:47:42;26.23;;;13.18;;
41293;SDS011;27037;52.010;4.446;2023-08-12T04:50:08;26.00;;;14.70;;
41293;SDS011;27037;52.010;4.446;2023-08-12T04:52:34;26.80;;;14.50;;
41293;SDS011;27037;52.010;4.446;2023-08-12T04:55:00;21.92;;;13.57;;
41293;SDS011;27037;52.010;4.446;2023-08-12T04:57:25;23.38;;;13.88;;
41293;SDS011;27037;52.010;4.446;2023-08-12T04:59:51;28.00;;;14.40;;
41293;SDS011;27037;52.010;4.446;2023-08-12T05:02:17;24.63;;;13.77;;
41293;SDS011;27037;52.010;4.446;2023-08-12T05:04:49;27.52;;;13.85;;
41293;SDS011;27037;52.010;4.446;2023-08-12T05:07:15;23.13;;;13.38;;
41293;SDS011;27037;52.010;4.446;2023-08-12T05:09:41;23.00;;;14.45;;
41293;SDS011;27037;52.010;4.446;2023-08-12T05:12:10;28.50;;;15.02;;
41293;SDS011;27037;52.010;4.446;2023-08-12T05:14:37;26.60;;;14.48;;
41293;SDS011;27037;52.010;4.446;2023-08-12T05:17:04;34.20;;;16.10;;
41293;SDS011;27037;52.010;4.446;2023-08-12T05:19:30;34.90;;;17.40;;
41293;SDS011;27037;52.010;4.446;2023-08-12T05:21:56;30.50;;;16.85;;
41293;SDS011;27037;52.010;4.446;2023-08-12T05:24:21;29.10;;;16.45;;
41293;SDS011;27037;52.010;4.446;2023-08-12T05:26:47;32.15;;;18.48;;
41293;SDS011;27037;52.010;4.446;2023-08-12T05:29:13;33.00;;;19.02;;
41293;SDS011;27037;52.010;4.446;2023-08-12T05:31:38;29.77;;;18.80;;
41293;SDS011;27037;52.010;4.446;2023-08-12T05:34:04;31.27;;;19.33;;
41293;SDS011;27037;52.010;4.446;2023-08-12T05:36:30;29.35;;;19.02;;
41293;SDS011;27037;52.010;4.446;2023-08-12T05:38:55;29.85;;;20.05;;
41293;SDS011;27037;52.010;4.446;2023-08-12T05:41:21;31.77;;;20.42;;
41293;SDS011;27037;52.010;4.446;2023-08-12T05:43:47;29.33;;;19.75;;
41293;SDS011;27037;52.010;4.446;2023-08-12T05:46:14;31.73;;;19.08;;
41293;SDS011;27037;52.010;4.446;2023-08-12T05:48:39;28.58;;;19.70;;
41293;SDS011;27037;52.010;4.446;2023-08-12T05:51:05;26.85;;;19.08;;
41293;SDS011;27037;52.010;4.446;2023-08-12T05:53:31;28.45;;;17.33;;
41293;SDS011;27037;52.010;4.446;2023-08-12T05:55:57;26.73;;;16.65;;
41293;SDS011;27037;52.010;4.446;2023-08-12T05:58:23;26.27;;;15.93;;
41293;SDS011;27037;52.010;4.446;2023-08-12T06:00:49;23.88;;;16.00;;
41293;SDS011;27037;52.010;4.446;2023-08-12T06:03:15;21.70;;;15.27;;
41293;SDS011;27037;52.010;4.446;2023-08-12T06:05:41;20.63;;;14.50;;
41293;SDS011;27037;52.010;4.446;2023-08-12T06:08:09;21.25;;;14.43;;
41293;SDS011;27037;52.010;4.446;2023-08-12T06:10:35;20.38;;;13.45;;
41293;SDS011;27037;52.010;4.446;2023-08-12T06:13:00;20.15;;;13.25;;
41293;SDS011;27037;52.010;4.446;2023-08-12T06:15:26;21.60;;;14.07;;
41293;SDS011;27037;52.010;4.446;2023-08-12T06:17:52;19.98;;;13.52;;
41293;SDS011;27037;52.010;4.446;2023-08-12T06:20:17;20.50;;;13.30;;
41293;SDS011;27037;52.010;4.446;2023-08-12T06:22:43;17.55;;;12.80;;
41293;SDS011;27037;52.010;4.446;2023-08-12T06:25:09;18.92;;;12.70;;
41293;SDS011;27037;52.010;4.446;2023-08-12T06:27:34;23.17;;;13.70;;
41293;SDS011;27037;52.010;4.446;2023-08-12T06:30:00;20.70;;;13.52;;
41293;SDS011;27037;52.010;4.446;2023-08-12T06:32:25;21.70;;;12.73;;
41293;SDS011;27037;52.010;4.446;2023-08-12T06:34:51;18.05;;;12.13;;
41293;SDS011;27037;52.010;4.446;2023-08-12T06:37:17;20.10;;;12.02;;
41293;SDS011;27037;52.010;4.446;2023-08-12T06:39:42;16.25;;;11.02;;
41293;SDS011;27037;52.010;4.446;2023-08-12T06:42:08;13.75;;;10.18;;
41293;SDS011;27037;52.010;4.446;2023-08-12T06:44:33;13.23;;;9.70;;
41293;SDS011;27037;52.010;4.446;2023-08-12T06:46:59;14.77;;;8.68;;
41293;SDS011;27037;52.010;4.446;2023-08-12T06:49:25;12.35;;;7.97;;
41293;SDS011;27037;52.010;4.446;2023-08-12T06:51:50;9.82;;;7.47;;
41293;SDS011;27037;52.010;4.446;2023-08-12T06:54:16;9.15;;;7.20;;
41293;SDS011;27037;52.010;4.446;2023-08-12T06:56:42;8.77;;;6.60;;
41293;SDS011;27037;52.010;4.446;2023-08-12T06:59:08;7.68;;;5.93;;
41293;SDS011;27037;52.010;4.446;2023-08-12T07:01:33;6.85;;;5.18;;
41293;SDS011;27037;52.010;4.446;2023-08-12T07:03:59;9.77;;;3.65;;
41293;SDS011;27037;52.010;4.446;2023-08-12T07:06:25;7.22;;;2.80;;
41293;SDS011;27037;52.010;4.446;2023-08-12T07:08:50;6.72;;;2.00;;
41293;SDS011;27037;52.010;4.446;2023-08-12T07:11:16;9.60;;;2.53;;
41293;SDS011;27037;52.010;4.446;2023-08-12T07:13:41;6.20;;;2.45;;
41293;SDS011;27037;52.010;4.446;2023-08-12T07:16:11;5.95;;;2.30;;
41293;SDS011;27037;52.010;4.446;2023-08-12T07:18:36;8.57;;;2.60;;
41293;SDS011;27037;52.010;4.446;2023-08-12T07:21:02;8.80;;;2.00;;
41293;SDS011;27037;52.010;4.446;2023-08-12T07:23:28;11.02;;;2.40;;
41293;SDS011;27037;52.010;4.446;2023-08-12T07:25:54;5.53;;;1.95;;
41293;SDS011;27037;52.010;4.446;2023-08-12T07:28:20;6.25;;;1.98;;
41293;SDS011;27037;52.010;4.446;2023-08-12T07:30:45;8.80;;;2.00;;
41293;SDS011;27037;52.010;4.446;2023-08-12T07:33:12;6.22;;;1.95;;
41293;SDS011;27037;52.010;4.446;2023-08-12T07:35:38;7.20;;;1.90;;
41293;SDS011;27037;52.010;4.446;2023-08-12T07:38:03;5.72;;;2.05;;
41293;SDS011;27037;52.010;4.446;2023-08-12T07:40:29;6.03;;;1.90;;
41293;SDS011;27037;52.010;4.446;2023-08-12T07:42:55;9.90;;;2.35;;
41293;SDS011;27037;52.010;4.446;2023-08-12T07:45:21;9.90;;;2.35;;
41293;SDS011;27037;52.010;4.446;2023-08-12T07:47:48;6.95;;;1.90;;
41293;SDS011;27037;52.010;4.446;2023-08-12T07:50:14;7.28;;;2.22;;
41293;SDS011;27037;52.010;4.446;2023-08-12T07:52:40;8.40;;;2.53;;
41293;SDS011;27037;52.010;4.446;2023-08-12T07:55:06;8.30;;;2.20;;
41293;SDS011;27037;52.010;4.446;2023-08-12T07:57:32;8.73;;;2.17;;
41293;SDS011;27037;52.010;4.446;2023-08-12T07:59:57;8.52;;;2.10;;
41293;SDS011;27037;52.010;4.446;2023-08-12T08:02:23;8.25;;;2.13;;
41293;SDS011;27037;52.010;4.446;2023-08-12T08:04:49;8.68;;;2.63;;
41293;SDS011;27037;52.010;4.446;2023-08-12T08:07:15;7.22;;;2.30;;
41293;SDS011;27037;52.010;4.446;2023-08-12T08:09:41;9.65;;;2.50;;
41293;SDS011;27037;52.010;4.446;2023-08-12T08:12:08;13.30;;;2.47;;
41293;SDS011;27037;52.010;4.446;2023-08-12T08:14:34;8.98;;;2.42;;
41293;SDS011;27037;52.010;4.446;2023-08-12T08:17:00;6.53;;;1.80;;
41293;SDS011;27037;52.010;4.446;2023-08-12T08:19:26;11.13;;;2.53;;
41293;SDS011;27037;52.010;4.446;2023-08-12T08:21:52;6.70;;;2.20;;
41293;SDS011;27037;52.010;4.446;2023-08-12T08:24:18;10.80;;;2.17;;
41293;SDS011;27037;52.010;4.446;2023-08-12T08:26:44;5.70;;;2.05;;
41293;SDS011;27037;52.010;4.446;2023-08-12T08:29:11;9.50;;;2.53;;
41293;SDS011;27037;52.010;4.446;2023-08-12T08:31:37;5.63;;;2.30;;
41293;SDS011;27037;52.010;4.446;2023-08-12T08:34:03;9.77;;;2.47;;
41293;SDS011;27037;52.010;4.446;2023-08-12T08:36:29;10.63;;;2.40;;
41293;SDS011;27037;52.010;4.446;2023-08-12T08:38:55;8.98;;;2.30;;
41293;SDS011;27037;52.010;4.446;2023-08-12T08:41:20;11.80;;;2.40;;
41293;SDS011;27037;52.010;4.446;2023-08-12T08:43:47;6.45;;;2.08;;
41293;SDS011;27037;52.010;4.446;2023-08-12T08:46:16;9.88;;;2.63;;
41293;SDS011;27037;52.010;4.446;2023-08-12T08:48:43;17.88;;;2.97;;
41293;SDS011;27037;52.010;4.446;2023-08-12T08:51:12;8.52;;;2.55;;
41293;SDS011;27037;52.010;4.446;2023-08-12T08:53:38;10.55;;;2.40;;
41293;SDS011;27037;52.010;4.446;2023-08-12T08:56:05;12.10;;;2.65;;
41293;SDS011;27037;52.010;4.446;2023-08-12T08:58:32;10.82;;;2.58;;
41293;SDS011;27037;52.010;4.446;2023-08-12T09:00:58;11.88;;;2.83;;
41293;SDS011;27037;52.010;4.446;2023-08-12T09:03:25;14.00;;;2.35;;
41293;SDS011;27037;52.010;4.446;2023-08-12T09:05:51;11.75;;;2.47;;
41293;SDS011;27037;52.010;4.446;2023-08-12T09:08:20;30.02;;;17.35;;
41293;SDS011;27037;52.010;4.446;2023-08-12T09:10:46;67.97;;;47.42;;
41293;SDS011;27037;52.010;4.446;2023-08-12T09:13:13;12.77;;;3.70;;
41293;SDS011;27037;52.010;4.446;2023-08-12T09:15:40;7.93;;;2.13;;
41293;SDS011;27037;52.010;4.446;2023-08-12T09:18:05;13.35;;;2.33;;
41293;SDS011;27037;52.010;4.446;2023-08-12T09:20:32;9.40;;;2.35;;
41293;SDS011;27037;52.010;4.446;2023-08-12T09:22:59;7.15;;;2.10;;
41293;SDS011;27037;52.010;4.446;2023-08-12T09:25:26;10.32;;;2.55;;
41293;SDS011;27037;52.010;4.446;2023-08-12T09:27:54;9.48;;;1.98;;
41293;SDS011;27037;52.010;4.446;2023-08-12T09:30:21;8.95;;;2.28;;
41293;SDS011;27037;52.010;4.446;2023-08-12T09:33:00;9.98;;;2.20;;
41293;SDS011;27037;52.010;4.446;2023-08-12T09:35:35;7.90;;;2.25;;
41293;SDS011;27037;52.010;4.446;2023-08-12T09:38:10;9.35;;;2.05;;
41293;SDS011;27037;52.010;4.446;2023-08-12T09:40:37;9.93;;;2.25;;
41293;SDS011;27037;52.010;4.446;2023-08-12T09:43:04;10.00;;;2.20;;
41293;SDS011;27037;52.010;4.446;2023-08-12T09:45:30;7.07;;;1.80;;
41293;SDS011;27037;52.010;4.446;2023-08-12T09:47:57;9.55;;;1.95;;
41293;SDS011;27037;52.010;4.446;2023-08-12T09:50:24;9.18;;;2.38;;
41293;SDS011;27037;52.010;4.446;2023-08-12T09:52:50;11.82;;;2.58;;
41293;SDS011;27037;52.010;4.446;2023-08-12T09:55:17;11.05;;;2.35;;
41293;SDS011;27037;52.010;4.446;2023-08-12T09:57:44;11.30;;;2.72;;
41293;SDS011;27037;52.010;4.446;2023-08-12T10:00:14;11.45;;;2.17;;
41293;SDS011;27037;52.010;4.446;2023-08-12T10:02:44;11.20;;;2.65;;
41293;SDS011;27037;52.010;4.446;2023-08-12T10:05:12;15.35;;;2.28;;
41293;SDS011;27037;52.010;4.446;2023-08-12T10:07:41;12.82;;;2.85;;
41293;SDS011;27037;52.010;4.446;2023-08-12T10:10:08;11.70;;;2.30;;
41293;SDS011;27037;52.010;4.446;2023-08-12T10:12:34;10.40;;;2.75;;
41293;SDS011;27037;52.010;4.446;2023-08-12T10:15:03;14.38;;;2.55;;
41293;SDS011;27037;52.010;4.446;2023-08-12T10:17:30;16.30;;;2.70;;
41293;SDS011;27037;52.010;4.446;2023-08-12T10:19:57;10.35;;;2.60;;
41293;SDS011;27037;52.010;4.446;2023-08-12T10:22:24;11.30;;;2.67;;
41293;SDS011;27037;52.010;4.446;2023-08-12T10:24:51;10.57;;;2.78;;
41293;SDS011;27037;52.010;4.446;2023-08-12T10:27:17;10.95;;;2.40;;
41293;SDS011;27037;52.010;4.446;2023-08-12T10:29:43;11.82;;;2.67;;
41293;SDS011;27037;52.010;4.446;2023-08-12T10:32:09;10.52;;;2.60;;
41293;SDS011;27037;52.010;4.446;2023-08-12T10:34:35;9.95;;;3.00;;
41293;SDS011;27037;52.010;4.446;2023-08-12T10:37:01;11.75;;;2.80;;
41293;SDS011;27037;52.010;4.446;2023-08-12T10:39:28;8.90;;;2.72;;
41293;SDS011;27037;52.010;4.446;2023-08-12T10:41:56;10.50;;;2.40;;
41293;SDS011;27037;52.010;4.446;2023-08-12T10:44:26;12.18;;;3.00;;
41293;SDS011;27037;52.010;4.446;2023-08-12T10:46:52;14.60;;;3.45;;
41293;SDS011;27037;52.010;4.446;2023-08-12T10:49:19;11.38;;;2.80;;
41293;SDS011;27037;52.010;4.446;2023-08-12T10:54:25;14.95;;;3.13;;
41293;SDS011;27037;52.010;4.446;2023-08-12T10:59:47;15.68;;;2.65;;
41293;SDS011;27037;52.010;4.446;2023-08-12T11:07:20;12.15;;;2.75;;
41293;SDS011;27037;52.010;4.446;2023-08-12T11:09:50;11.57;;;2.65;;
41293;SDS011;27037;52.010;4.446;2023-08-12T11:12:33;16.20;;;3.00;;
41293;SDS011;27037;52.010;4.446;2023-08-12T11:15:00;14.27;;;2.50;;
41293;SDS011;27037;52.010;4.446;2023-08-12T11:17:28;13.70;;;2.70;;
41293;SDS011;27037;52.010;4.446;2023-08-12T11:19:57;11.82;;;2.33;;
41293;SDS011;27037;52.010;4.446;2023-08-12T11:22:23;13.77;;;2.55;;
41293;SDS011;27037;52.010;4.446;2023-08-12T11:24:50;15.57;;;2.70;;
41293;SDS011;27037;52.010;4.446;2023-08-12T11:27:16;30.02;;;13.82;;
41293;SDS011;27037;52.010;4.446;2023-08-12T11:29:43;26.55;;;15.15;;
41293;SDS011;27037;52.010;4.446;2023-08-12T11:32:09;14.30;;;3.10;;
41293;SDS011;27037;52.010;4.446;2023-08-12T11:34:35;7.43;;;2.70;;
41293;SDS011;27037;52.010;4.446;2023-08-12T11:37:02;16.05;;;3.42;;
41293;SDS011;27037;52.010;4.446;2023-08-12T11:39:28;40.42;;;24.65;;
41293;SDS011;27037;52.010;4.446;2023-08-12T11:41:55;13.10;;;3.60;;
41293;SDS011;27037;52.010;4.446;2023-08-12T11:44:21;12.45;;;3.00;;
41293;SDS011;27037;52.010;4.446;2023-08-12T11:46:47;12.55;;;3.13;;
41293;SDS011;27037;52.010;4.446;2023-08-12T11:49:14;11.38;;;2.65;;
41293;SDS011;27037;52.010;4.446;2023-08-12T11:51:39;12.07;;;2.95;;
41293;SDS011;27037;52.010;4.446;2023-08-12T11:54:07;13.45;;;2.80;;
41293;SDS011;27037;52.010;4.446;2023-08-12T11:56:33;15.98;;;2.95;;
41293;SDS011;27037;52.010;4.446;2023-08-12T11:58:59;14.55;;;2.90;;
41293;SDS011;27037;52.010;4.446;2023-08-12T12:01:24;17.05;;;3.63;;
41293;SDS011;27037;52.010;4.446;2023-08-12T12:03:53;12.80;;;2.70;;
41293;SDS011;27037;52.010;4.446;2023-08-12T12:06:37;29.63;;;16.60;;
41293;SDS011;27037;52.010;4.446;2023-08-12T12:09:05;13.93;;;3.00;;
41293;SDS011;27037;52.010;4.446;2023-08-12T12:11:35;15.20;;;5.28;;
41293;SDS011;27037;52.010;4.446;2023-08-12T12:14:04;19.27;;;5.55;;
41293;SDS011;27037;52.010;4.446;2023-08-12T12:16:41;13.75;;;2.90;;
41293;SDS011;27037;52.010;4.446;2023-08-12T12:19:09;13.75;;;2.97;;
41293;SDS011;27037;52.010;4.446;2023-08-12T12:21:42;15.93;;;3.35;;
41293;SDS011;27037;52.010;4.446;2023-08-12T12:24:10;19.05;;;3.40;;
41293;SDS011;27037;52.010;4.446;2023-08-12T12:26:36;15.27;;;3.00;;
41293;SDS011;27037;52.010;4.446;2023-08-12T12:29:05;17.02;;;5.22;;
41293;SDS011;27037;52.010;4.446;2023-08-12T12:31:32;12.48;;;3.13;;
41293;SDS011;27037;52.010;4.446;2023-08-12T12:33:59;12.73;;;3.03;;
41293;SDS011;27037;52.010;4.446;2023-08-12T12:36:29;18.48;;;3.95;;
41293;SDS011;27037;52.010;4.446;2023-08-12T12:38:59;10.77;;;2.63;;
41293;SDS011;27037;52.010;4.446;2023-08-12T12:41:25;12.63;;;2.75;;
41293;SDS011;27037;52.010;4.446;2023-08-12T12:43:50;19.30;;;6.70;;
41293;SDS011;27037;52.010;4.446;2023-08-12T12:46:16;14.35;;;5.20;;
41293;SDS011;27037;52.010;4.446;2023-08-12T12:48:42;9.52;;;2.80;;
41293;SDS011;27037;52.010;4.446;2023-08-12T12:51:10;10.27;;;3.05;;
41293;SDS011;27037;52.010;4.446;2023-08-12T12:53:37;15.43;;;3.33;;
41293;SDS011;27037;52.010;4.446;2023-08-12T12:56:03;12.10;;;3.30;;
41293;SDS011;27037;52.010;4.446;2023-08-12T12:58:37;15.82;;;3.17;;
41293;SDS011;27037;52.010;4.446;2023-08-12T13:01:04;15.15;;;3.03;;
41293;SDS011;27037;52.010;4.446;2023-08-12T13:03:30;18.17;;;3.28;;
41293;SDS011;27037;52.010;4.446;2023-08-12T13:05:56;13.23;;;3.28;;
41293;SDS011;27037;52.010;4.446;2023-08-12T13:08:22;14.75;;;3.22;;
41293;SDS011;27037;52.010;4.446;2023-08-12T13:10:48;13.15;;;3.33;;
41293;SDS011;27037;52.010;4.446;2023-08-12T13:13:14;16.30;;;3.10;;
41293;SDS011;27037;52.010;4.446;2023-08-12T13:15:41;16.58;;;3.28;;
41293;SDS011;27037;52.010;4.446;2023-08-12T13:18:07;12.02;;;2.97;;
41293;SDS011;27037;52.010;4.446;2023-08-12T13:20:33;16.13;;;3.33;;
41293;SDS011;27037;52.010;4.446;2023-08-12T13:22:59;14.07;;;2.83;;
41293;SDS011;27037;52.010;4.446;2023-08-12T13:25:25;12.00;;;2.90;;
41293;SDS011;27037;52.010;4.446;2023-08-12T13:27:53;8.18;;;2.63;;
41293;SDS011;27037;52.010;4.446;2023-08-12T13:30:18;13.02;;;2.90;;
41293;SDS011;27037;52.010;4.446;2023-08-12T13:32:44;17.83;;;2.92;;
41293;SDS011;27037;52.010;4.446;2023-08-12T13:35:10;13.75;;;2.80;;
41293;SDS011;27037;52.010;4.446;2023-08-12T13:37:36;14.50;;;3.00;;
41293;SDS011;27037;52.010;4.446;2023-08-12T13:40:01;11.80;;;2.78;;
41293;SDS011;27037;52.010;4.446;2023-08-12T13:42:28;15.73;;;3.38;;
41293;SDS011;27037;52.010;4.446;2023-08-12T13:44:53;17.10;;;3.33;;
41293;SDS011;27037;52.010;4.446;2023-08-12T13:47:19;13.30;;;3.15;;
41293;SDS011;27037;52.010;4.446;2023-08-12T13:49:44;15.73;;;3.28;;
41293;SDS011;27037;52.010;4.446;2023-08-12T13:52:10;14.40;;;3.40;;
41293;SDS011;27037;52.010;4.446;2023-08-12T13:54:36;16.73;;;3.78;;
41293;SDS011;27037;52.010;4.446;2023-08-12T13:57:02;17.00;;;3.70;;
41293;SDS011;27037;52.010;4.446;2023-08-12T13:59:28;18.08;;;3.47;;
41293;SDS011;27037;52.010;4.446;2023-08-12T14:01:53;25.70;;;10.02;;
41293;SDS011;27037;52.010;4.446;2023-08-12T14:04:19;13.55;;;3.88;;
41293;SDS011;27037;52.010;4.446;2023-08-12T14:06:45;17.08;;;4.18;;
41293;SDS011;27037;52.010;4.446;2023-08-12T14:09:11;13.38;;;3.05;;
41293;SDS011;27037;52.010;4.446;2023-08-12T14:11:38;17.27;;;3.20;;
41293;SDS011;27037;52.010;4.446;2023-08-12T14:14:04;16.33;;;3.50;;
41293;SDS011;27037;52.010;4.446;2023-08-12T14:16:30;20.20;;;10.15;;
41293;SDS011;27037;52.010;4.446;2023-08-12T14:18:56;13.90;;;3.45;;
41293;SDS011;27037;52.010;4.446;2023-08-12T14:21:22;15.40;;;3.92;;
41293;SDS011;27037;52.010;4.446;2023-08-12T14:23:47;13.43;;;2.97;;
41293;SDS011;27037;52.010;4.446;2023-08-12T14:26:13;15.40;;;2.90;;
41293;SDS011;27037;52.010;4.446;2023-08-12T14:28:38;11.65;;;2.80;;
41293;SDS011;27037;52.010;4.446;2023-08-12T14:31:04;13.43;;;3.03;;
41293;SDS011;27037;52.010;4.446;2023-08-12T14:33:30;15.27;;;2.72;;
41293;SDS011;27037;52.010;4.446;2023-08-12T14:35:57;16.05;;;2.85;;
41293;SDS011;27037;52.010;4.446;2023-08-12T14:38:23;13.05;;;2.58;;
41293;SDS011;27037;52.010;4.446;2023-08-12T14:40:49;14.38;;;2.88;;